sensor_id;sensor_type;location;lat;lon;timestamp;pressure;altitude;pressure_sealevel;temperature;humidity
55590;BME280;41452;42.780;23.116;2023-03-19T00:02:11;94880.22;;;-1.48;90.80
55590;BME280;41452;42.780;23.116;2023-03-19T00:04:37;94879.34;;;-1.39;90.38
55590;BME280;41452;42.780;23.116;2023-03-19T00:07:02;94878.47;;;-1.47;90.22
55590;BME280;41452;42.780;23.116;2023-03-19T00:09:28;94865.38;;;-1.64;90.54
55590;BME280;41452;42.780;23.116;2023-03-19T00:11:53;94868.19;;;-1.57;90.56
55590;BME280;41452;42.780;23.116;2023-03-19T00:14:18;94877.97;;;-1.61;90.80
55590;BME280;41452;42.780;23.116;2023-03-19T00:16:44;94866.03;;;-1.62;90.95
55590;BME280;41452;42.780;23.116;2023-03-19T00:19:10;94858.56;;;-1.55;90.57
55590;BME280;41452;42.780;23.116;2023-03-19T00:21:35;94827.13;;;-1.86;90.77
55590;BME280;41452;42.780;23.116;2023-03-19T00:24:01;94826.75;;;-1.92;90.67
55590;BME280;41452;42.780;23.116;2023-03-19T00:26:31;94847.25;;;-1.72;90.09
55590;BME280;41452;42.780;23.116;2023-03-19T00:28:57;94850.56;;;-1.52;89.50
55590;BME280;41452;42.780;23.116;2023-03-19T00:31:23;94828.78;;;-1.67;88.92
55590;BME280;41452;42.780;23.116;2023-03-19T00:33:49;94850.13;;;-1.47;88.99
55590;BME280;41452;42.780;23.116;2023-03-19T00:36:15;94797.47;;;-1.91;89.57
55590;BME280;41452;42.780;23.116;2023-03-19T00:38:42;94847.59;;;-1.57;89.66
55590;BME280;41452;42.780;23.116;2023-03-19T00:41:08;94790.19;;;-1.95;89.83
55590;BME280;41452;42.780;23.116;2023-03-19T00:43:33;94739.84;;;-2.45;90.78
55590;BME280;41452;42.780;23.116;2023-03-19T00:45:59;94840.84;;;-1.96;91.34
55590;BME280;41452;42.780;23.116;2023-03-19T00:48:25;94836.66;;;-1.97;91.77
55590;BME280;41452;42.780;23.116;2023-03-19T00:50:51;94838.25;;;-1.96;92.22
55590;BME280;41452;42.780;23.116;2023-03-19T00:53:17;94763.22;;;-2.38;92.36
55590;BME280;41452;42.780;23.116;2023-03-19T00:55:42;94791.38;;;-2.27;92.44
55590;BME280;41452;42.780;23.116;2023-03-19T00:58:08;94827.56;;;-2.01;93.02
55590;BME280;41452;42.780;23.116;2023-03-19T01:00:35;94821.06;;;-1.95;92.38
55590;BME280;41452;42.780;23.116;2023-03-19T01:03:01;94787.56;;;-2.13;92.24
55590;BME280;41452;42.780;23.116;2023-03-19T01:05:26;94814.88;;;-2.02;92.55
55590;BME280;41452;42.780;23.116;2023-03-19T01:07:52;94815.66;;;-2.02;92.26
55590;BME280;41452;42.780;23.116;2023-03-19T01:10:19;94784.59;;;-2.28;92.30
55590;BME280;41452;42.780;23.116;2023-03-19T01:12:45;94816.09;;;-2.06;92.51
55590;BME280;41452;42.780;23.116;2023-03-19T01:15:11;94812.44;;;-2.04;92.28
55590;BME280;41452;42.780;23.116;2023-03-19T01:17:36;94767.97;;;-2.34;91.74
55590;BME280;41452;42.780;23.116;2023-03-19T01:20:03;94813.97;;;-1.83;90.92
55590;BME280;41452;42.780;23.116;2023-03-19T01:22:34;94738.56;;;-2.31;90.96
55590;BME280;41452;42.780;23.116;2023-03-19T01:25:00;94818.44;;;-1.85;90.76
55590;BME280;41452;42.780;23.116;2023-03-19T01:27:26;94818.13;;;-2.10;91.73
55590;BME280;41452;42.780;23.116;2023-03-19T01:29:51;94822.91;;;-2.25;92.89
55590;BME280;41452;42.780;23.116;2023-03-19T01:32:17;94812.38;;;-2.32;93.69
55590;BME280;41452;42.780;23.116;2023-03-19T01:34:42;94817.38;;;-2.30;93.49
55590;BME280;41452;42.780;23.116;2023-03-19T01:37:08;94803.88;;;-2.42;93.74
55590;BME280;41452;42.780;23.116;2023-03-19T01:39:33;94812.38;;;-2.32;93.88
55590;BME280;41452;42.780;23.116;2023-03-19T01:42:02;94806.94;;;-2.28;93.79
55590;BME280;41452;42.780;23.116;2023-03-19T01:46:56;94816.28;;;-2.27;93.27
55590;BME280;41452;42.780;23.116;2023-03-19T01:49:24;94813.44;;;-2.24;92.88
55590;BME280;41452;42.780;23.116;2023-03-19T01:51:51;94810.78;;;-2.33;94.04
55590;BME280;41452;42.780;23.116;2023-03-19T01:54:20;94814.94;;;-2.22;92.99
55590;BME280;41452;42.780;23.116;2023-03-19T01:56:50;94815.00;;;-2.04;92.61
55590;BME280;41452;42.780;23.116;2023-03-19T01:59:24;94823.56;;;-2.13;93.14
55590;BME280;41452;42.780;23.116;2023-03-19T02:01:57;94819.69;;;-2.27;93.04
55590;BME280;41452;42.780;23.116;2023-03-19T02:04:26;94820.34;;;-2.35;93.49
55590;BME280;41452;42.780;23.116;2023-03-19T02:06:54;94817.59;;;-2.14;93.28
55590;BME280;41452;42.780;23.116;2023-03-19T02:09:20;94809.25;;;-2.25;93.23
55590;BME280;41452;42.780;23.116;2023-03-19T02:11:46;94816.69;;;-2.22;93.25
55590;BME280;41452;42.780;23.116;2023-03-19T02:14:11;94815.72;;;-2.21;93.10
55590;BME280;41452;42.780;23.116;2023-03-19T02:16:38;94816.56;;;-2.31;93.02
55590;BME280;41452;42.780;23.116;2023-03-19T02:19:06;94821.44;;;-2.27;93.01
55590;BME280;41452;42.780;23.116;2023-03-19T02:21:35;94817.59;;;-2.04;92.17
55590;BME280;41452;42.780;23.116;2023-03-19T02:24:06;94779.31;;;-2.26;91.72
55590;BME280;41452;42.780;23.116;2023-03-19T02:26:34;94772.59;;;-2.37;91.93
55590;BME280;41452;42.780;23.116;2023-03-19T02:29:00;94819.78;;;-2.19;92.20
55590;BME280;41452;42.780;23.116;2023-03-19T02:31:25;94818.44;;;-2.13;92.24
55590;BME280;41452;42.780;23.116;2023-03-19T02:36:44;94827.38;;;-2.17;91.85
55590;BME280;41452;42.780;23.116;2023-03-19T02:40:03;94835.47;;;-2.12;91.92
55590;BME280;41452;42.780;23.116;2023-03-19T02:42:03;94820.69;;;-2.10;91.50
55590;BME280;41452;42.780;23.116;2023-03-19T02:44:30;94825.63;;;-2.26;91.81
55590;BME280;41452;42.780;23.116;2023-03-19T02:46:55;94827.41;;;-2.37;92.67
55590;BME280;41452;42.780;23.116;2023-03-19T02:49:21;94834.31;;;-2.47;92.81
55590;BME280;41452;42.780;23.116;2023-03-19T02:51:46;94835.28;;;-2.48;93.01
55590;BME280;41452;42.780;23.116;2023-03-19T02:54:11;94836.53;;;-2.52;92.81
55590;BME280;41452;42.780;23.116;2023-03-19T02:56:37;94831.66;;;-2.55;92.76
55590;BME280;41452;42.780;23.116;2023-03-19T02:59:02;94833.53;;;-2.47;92.70
55590;BME280;41452;42.780;23.116;2023-03-19T03:01:28;94817.16;;;-2.56;92.29
55590;BME280;41452;42.780;23.116;2023-03-19T03:03:54;94836.91;;;-2.47;92.29
55590;BME280;41452;42.780;23.116;2023-03-19T03:06:20;94831.91;;;-2.49;92.08
55590;BME280;41452;42.780;23.116;2023-03-19T03:08:45;94838.69;;;-2.57;92.45
55590;BME280;41452;42.780;23.116;2023-03-19T03:11:11;94838.44;;;-2.64;92.56
55590;BME280;41452;42.780;23.116;2023-03-19T03:13:36;94842.34;;;-2.70;93.09
55590;BME280;41452;42.780;23.116;2023-03-19T03:16:01;94849.09;;;-2.69;92.98
55590;BME280;41452;42.780;23.116;2023-03-19T03:18:27;94830.16;;;-2.97;92.80
55590;BME280;41452;42.780;23.116;2023-03-19T03:20:53;94850.06;;;-2.79;92.92
55590;BME280;41452;42.780;23.116;2023-03-19T03:23:19;94846.94;;;-2.63;92.30
55590;BME280;41452;42.780;23.116;2023-03-19T03:25:48;94840.31;;;-2.56;92.10
55590;BME280;41452;42.780;23.116;2023-03-19T03:28:13;94817.19;;;-2.66;91.99
55590;BME280;41452;42.780;23.116;2023-03-19T03:30:38;94846.13;;;-2.54;91.74
55590;BME280;41452;42.780;23.116;2023-03-19T03:33:04;94844.38;;;-2.63;91.68
55590;BME280;41452;42.780;23.116;2023-03-19T03:35:29;94840.03;;;-2.53;90.77
55590;BME280;41452;42.780;23.116;2023-03-19T03:37:55;94788.63;;;-2.73;91.15
55590;BME280;41452;42.780;23.116;2023-03-19T03:40:20;94838.03;;;-2.59;91.75
55590;BME280;41452;42.780;23.116;2023-03-19T03:42:46;94840.31;;;-2.66;91.73
55590;BME280;41452;42.780;23.116;2023-03-19T03:45:11;94848.97;;;-2.67;91.83
55590;BME280;41452;42.780;23.116;2023-03-19T03:47:36;94509.94;;;-4.70;91.12
55590;BME280;41452;42.780;23.116;2023-03-19T03:50:02;94842.75;;;-2.45;91.48
55590;BME280;41452;42.780;23.116;2023-03-19T03:52:31;94851.81;;;-2.60;91.33
55590;BME280;41452;42.780;23.116;2023-03-19T03:54:58;94795.84;;;-3.06;91.50
55590;BME280;41452;42.780;23.116;2023-03-19T03:57:24;94845.59;;;-2.77;91.99
55590;BME280;41452;42.780;23.116;2023-03-19T03:59:50;94846.53;;;-2.88;93.07
55590;BME280;41452;42.780;23.116;2023-03-19T04:02:15;94850.59;;;-2.95;92.65
55590;BME280;41452;42.780;23.116;2023-03-19T04:04:41;94848.72;;;-3.03;93.08
55590;BME280;41452;42.780;23.116;2023-03-19T04:07:07;94840.19;;;-3.03;93.52
55590;BME280;41452;42.780;23.116;2023-03-19T04:09:32;94844.53;;;-2.94;92.69
55590;BME280;41452;42.780;23.116;2023-03-19T04:11:58;94792.56;;;-3.27;92.75
55590;BME280;41452;42.780;23.116;2023-03-19T04:14:24;94842.78;;;-3.03;93.05
55590;BME280;41452;42.780;23.116;2023-03-19T04:16:50;94835.03;;;-3.23;93.15
55590;BME280;41452;42.780;23.116;2023-03-19T04:19:16;94679.09;;;-4.20;93.10
55590;BME280;41452;42.780;23.116;2023-03-19T04:21:41;94844.13;;;-2.99;93.05
55590;BME280;41452;42.780;23.116;2023-03-19T04:24:07;94847.63;;;-3.00;92.71
55590;BME280;41452;42.780;23.116;2023-03-19T04:26:34;94815.84;;;-3.19;92.86
55590;BME280;41452;42.780;23.116;2023-03-19T04:29:00;94853.31;;;-3.07;92.98
55590;BME280;41452;42.780;23.116;2023-03-19T04:31:26;94855.34;;;-3.00;92.92
55590;BME280;41452;42.780;23.116;2023-03-19T04:33:51;94851.25;;;-3.13;92.76
55590;BME280;41452;42.780;23.116;2023-03-19T04:36:17;94826.47;;;-3.43;93.86
55590;BME280;41452;42.780;23.116;2023-03-19T04:38:43;94857.50;;;-3.25;93.83
55590;BME280;41452;42.780;23.116;2023-03-19T04:41:08;94839.50;;;-3.25;93.86
55590;BME280;41452;42.780;23.116;2023-03-19T04:43:33;94813.78;;;-3.45;93.80
55590;BME280;41452;42.780;23.116;2023-03-19T04:45:59;94857.22;;;-3.22;93.97
55590;BME280;41452;42.780;23.116;2023-03-19T04:48:24;94852.63;;;-3.28;94.96
55590;BME280;41452;42.780;23.116;2023-03-19T04:50:50;94850.97;;;-3.29;95.04
55590;BME280;41452;42.780;23.116;2023-03-19T04:53:18;94854.78;;;-3.14;94.61
55590;BME280;41452;42.780;23.116;2023-03-19T04:55:44;94852.38;;;-3.06;93.37
55590;BME280;41452;42.780;23.116;2023-03-19T04:58:11;94819.34;;;-3.20;94.05
55590;BME280;41452;42.780;23.116;2023-03-19T05:00:37;94815.84;;;-3.19;94.06
55590;BME280;41452;42.780;23.116;2023-03-19T05:03:02;94857.66;;;-2.78;94.07
55590;BME280;41452;42.780;23.116;2023-03-19T05:05:28;94809.06;;;-3.00;94.30
55590;BME280;41452;42.780;23.116;2023-03-19T05:07:53;94862.09;;;-2.60;95.02
55590;BME280;41452;42.780;23.116;2023-03-19T05:10:19;94797.31;;;-2.93;95.16
55590;BME280;41452;42.780;23.116;2023-03-19T05:12:45;94866.97;;;-2.47;95.12
55590;BME280;41452;42.780;23.116;2023-03-19T05:15:10;94855.16;;;-2.40;95.25
55590;BME280;41452;42.780;23.116;2023-03-19T05:17:36;94858.69;;;-2.32;95.27
55590;BME280;41452;42.780;23.116;2023-03-19T05:20:02;94858.69;;;-2.32;95.24
55590;BME280;41452;42.780;23.116;2023-03-19T05:22:29;94804.44;;;-2.58;95.02
55590;BME280;41452;42.780;23.116;2023-03-19T05:24:54;94866.34;;;-2.12;95.63
55590;BME280;41452;42.780;23.116;2023-03-19T05:27:20;94793.47;;;-2.60;95.99
55590;BME280;41452;42.780;23.116;2023-03-19T05:29:46;94858.84;;;-1.96;96.83
55590;BME280;41452;42.780;23.116;2023-03-19T05:32:12;94838.25;;;-1.96;96.29
55590;BME280;41452;42.780;23.116;2023-03-19T05:34:38;94833.63;;;-1.92;95.70
55590;BME280;41452;42.780;23.116;2023-03-19T05:37:03;94858.63;;;-1.65;95.32
55590;BME280;41452;42.780;23.116;2023-03-19T05:39:28;94862.25;;;-1.58;94.90
55590;BME280;41452;42.780;23.116;2023-03-19T05:41:54;94869.00;;;-1.57;95.61
55590;BME280;41452;42.780;23.116;2023-03-19T05:44:19;94871.31;;;-1.54;96.07
55590;BME280;41452;42.780;23.116;2023-03-19T05:46:45;94875.38;;;-1.51;96.73
55590;BME280;41452;42.780;23.116;2023-03-19T05:49:11;94874.44;;;-1.32;96.94
55590;BME280;41452;42.780;23.116;2023-03-19T05:51:36;94875.13;;;-1.12;96.41
55590;BME280;41452;42.780;23.116;2023-03-19T05:54:02;94867.56;;;-1.13;98.37
55590;BME280;41452;42.780;23.116;2023-03-19T05:56:28;94880.66;;;-1.07;99.44
55590;BME280;41452;42.780;23.116;2023-03-19T05:58:53;94889.91;;;-0.86;97.98
55590;BME280;41452;42.780;23.116;2023-03-19T06:01:19;94883.06;;;-0.78;96.72
55590;BME280;41452;42.780;23.116;2023-03-19T06:03:44;94882.69;;;-0.65;96.81
55590;BME280;41452;42.780;23.116;2023-03-19T06:06:10;94885.50;;;-0.58;96.45
55590;BME280;41452;42.780;23.116;2023-03-19T06:08:36;94862.84;;;-0.64;95.59
55590;BME280;41452;42.780;23.116;2023-03-19T06:11:02;94834.22;;;-0.79;96.02
55590;BME280;41452;42.780;23.116;2023-03-19T06:13:27;94798.50;;;-0.92;96.59
55590;BME280;41452;42.780;23.116;2023-03-19T06:15:53;94897.41;;;-0.21;95.74
55590;BME280;41452;42.780;23.116;2023-03-19T06:18:18;94889.88;;;-0.32;94.89
55590;BME280;41452;42.780;23.116;2023-03-19T06:20:45;94891.63;;;-0.15;94.30
55590;BME280;41452;42.780;23.116;2023-03-19T06:23:11;94888.00;;;-0.04;94.43
55590;BME280;41452;42.780;23.116;2023-03-19T06:25:37;94879.16;;;-0.02;92.94
55590;BME280;41452;42.780;23.116;2023-03-19T06:28:03;94893.94;;;-0.12;92.41
55590;BME280;41452;42.780;23.116;2023-03-19T06:30:29;94896.88;;;-0.07;93.12
55590;BME280;41452;42.780;23.116;2023-03-19T06:32:55;94901.16;;;-0.15;93.02
55590;BME280;41452;42.780;23.116;2023-03-19T06:35:20;94907.84;;;-0.05;94.38
55590;BME280;41452;42.780;23.116;2023-03-19T06:37:45;94908.88;;;0.03;94.11
55590;BME280;41452;42.780;23.116;2023-03-19T06:40:11;94907.50;;;0.16;92.46
55590;BME280;41452;42.780;23.116;2023-03-19T06:42:37;94907.81;;;0.40;92.41
55590;BME280;41452;42.780;23.116;2023-03-19T06:45:02;94902.66;;;0.48;90.84
55590;BME280;41452;42.780;23.116;2023-03-19T06:47:28;94904.34;;;0.57;89.63
55590;BME280;41452;42.780;23.116;2023-03-19T06:49:53;94871.28;;;0.43;87.21
55590;BME280;41452;42.780;23.116;2023-03-19T06:52:19;94881.56;;;0.61;87.09
55590;BME280;41452;42.780;23.116;2023-03-19T06:54:44;94903.47;;;0.83;86.18
55590;BME280;41452;42.780;23.116;2023-03-19T06:57:10;94914.19;;;0.96;87.79
55590;BME280;41452;42.780;23.116;2023-03-19T06:59:35;94908.06;;;1.05;87.11
55590;BME280;41452;42.780;23.116;2023-03-19T07:02:00;94753.69;;;0.22;86.02
55590;BME280;41452;42.780;23.116;2023-03-19T07:04:26;94900.84;;;1.25;86.21
55590;BME280;41452;42.780;23.116;2023-03-19T07:06:51;94911.34;;;1.40;88.98
55590;BME280;41452;42.780;23.116;2023-03-19T07:09:17;94906.44;;;1.04;87.46
55590;BME280;41452;42.780;23.116;2023-03-19T07:11:42;94901.69;;;1.42;88.83
55590;BME280;41452;42.780;23.116;2023-03-19T07:14:08;94863.78;;;1.33;89.63
55590;BME280;41452;42.780;23.116;2023-03-19T07:16:33;94903.47;;;1.66;88.37
55590;BME280;41452;42.780;23.116;2023-03-19T07:18:59;94908.19;;;1.71;86.59
55590;BME280;41452;42.780;23.116;2023-03-19T07:21:24;94886.81;;;1.61;87.17
55590;BME280;41452;42.780;23.116;2023-03-19T07:23:50;94885.50;;;1.73;88.45
55590;BME280;41452;42.780;23.116;2023-03-19T07:26:16;94887.13;;;1.82;89.00
55590;BME280;41452;42.780;23.116;2023-03-19T07:28:42;94909.94;;;2.03;86.70
55590;BME280;41452;42.780;23.116;2023-03-19T07:31:08;94900.03;;;2.23;86.53
55590;BME280;41452;42.780;23.116;2023-03-19T07:33:33;94841.31;;;1.99;84.55
55590;BME280;41452;42.780;23.116;2023-03-19T07:35:59;94881.25;;;2.13;84.66
55590;BME280;41452;42.780;23.116;2023-03-19T07:38:24;94901.97;;;2.21;83.63
55590;BME280;41452;42.780;23.116;2023-03-19T07:40:50;94849.56;;;2.03;84.59
55590;BME280;41452;42.780;23.116;2023-03-19T07:43:15;94911.50;;;2.29;86.23
55590;BME280;41452;42.780;23.116;2023-03-19T07:45:41;94563.16;;;0.41;85.26
55590;BME280;41452;42.780;23.116;2023-03-19T07:48:06;94917.72;;;2.76;83.10
55590;BME280;41452;42.780;23.116;2023-03-19T07:50:32;94913.78;;;2.88;83.29
55590;BME280;41452;42.780;23.116;2023-03-19T07:52:58;94919.94;;;2.95;83.19
55590;BME280;41452;42.780;23.116;2023-03-19T07:55:24;94868.88;;;2.48;84.00
55590;BME280;41452;42.780;23.116;2023-03-19T07:57:49;94916.44;;;3.11;80.51
55590;BME280;41452;42.780;23.116;2023-03-19T08:00:16;94909.53;;;3.27;80.80
55590;BME280;41452;42.780;23.116;2023-03-19T08:02:41;94921.63;;;3.11;80.73
55590;BME280;41452;42.780;23.116;2023-03-19T08:05:07;94904.94;;;3.37;82.80
55590;BME280;41452;42.780;23.116;2023-03-19T08:07:34;94846.53;;;3.10;80.81
55590;BME280;41452;42.780;23.116;2023-03-19T08:09:59;94911.84;;;3.91;76.34
55590;BME280;41452;42.780;23.116;2023-03-19T08:12:25;94882.91;;;3.79;75.47
55590;BME280;41452;42.780;23.116;2023-03-19T08:14:50;94908.53;;;4.05;75.16
55590;BME280;41452;42.780;23.116;2023-03-19T08:17:16;94909.22;;;3.99;77.08
55590;BME280;41452;42.780;23.116;2023-03-19T08:19:42;94908.03;;;4.25;76.75
55590;BME280;41452;42.780;23.116;2023-03-19T08:22:08;94849.44;;;3.99;76.32
55590;BME280;41452;42.780;23.116;2023-03-19T08:24:33;94913.22;;;4.54;75.72
55590;BME280;41452;42.780;23.116;2023-03-19T08:26:59;94908.78;;;4.78;73.21
55590;BME280;41452;42.780;23.116;2023-03-19T08:29:25;94908.22;;;4.83;71.91
55590;BME280;41452;42.780;23.116;2023-03-19T08:31:54;94876.28;;;4.74;70.45
55590;BME280;41452;42.780;23.116;2023-03-19T08:34:20;94888.47;;;4.88;69.76
55590;BME280;41452;42.780;23.116;2023-03-19T08:36:46;94904.16;;;5.10;71.51
55590;BME280;41452;42.780;23.116;2023-03-19T08:39:11;94899.09;;;5.23;71.07
55590;BME280;41452;42.780;23.116;2023-03-19T08:41:37;94900.16;;;5.29;71.37
55590;BME280;41452;42.780;23.116;2023-03-19T08:44:02;94855.13;;;5.13;69.25
55590;BME280;41452;42.780;23.116;2023-03-19T08:46:28;94900.00;;;5.52;68.73
55590;BME280;41452;42.780;23.116;2023-03-19T08:48:54;94896.53;;;5.66;66.91
55590;BME280;41452;42.780;23.116;2023-03-19T08:51:20;94891.91;;;5.62;67.97
55590;BME280;41452;42.780;23.116;2023-03-19T08:53:45;94879.72;;;5.69;66.51
55590;BME280;41452;42.780;23.116;2023-03-19T08:56:11;94893.81;;;5.96;65.62
55590;BME280;41452;42.780;23.116;2023-03-19T08:58:36;94887.06;;;6.02;67.42
55590;BME280;41452;42.780;23.116;2023-03-19T09:01:06;94886.97;;;6.17;68.05
55590;BME280;41452;42.780;23.116;2023-03-19T09:03:34;94833.56;;;6.13;67.83
55590;BME280;41452;42.780;23.116;2023-03-19T09:06:01;94879.78;;;6.19;66.25
55590;BME280;41452;42.780;23.116;2023-03-19T09:08:27;94878.75;;;6.48;67.13
55590;BME280;41452;42.780;23.116;2023-03-19T09:10:54;94870.31;;;6.81;65.82
55590;BME280;41452;42.780;23.116;2023-03-19T09:13:19;94870.13;;;6.89;64.81
55590;BME280;41452;42.780;23.116;2023-03-19T09:15:45;94867.56;;;6.96;63.99
55590;BME280;41452;42.780;23.116;2023-03-19T09:18:10;94859.75;;;7.02;64.55
55590;BME280;41452;42.780;23.116;2023-03-19T09:20:36;94866.06;;;7.21;62.88
55590;BME280;41452;42.780;23.116;2023-03-19T09:23:01;94848.38;;;7.23;60.59
55590;BME280;41452;42.780;23.116;2023-03-19T09:25:27;94786.41;;;6.97;62.18
55590;BME280;41452;42.780;23.116;2023-03-19T09:27:52;94864.13;;;7.64;61.49
55590;BME280;41452;42.780;23.116;2023-03-19T09:30:18;94859.13;;;7.69;62.71
55590;BME280;41452;42.780;23.116;2023-03-19T09:32:43;94859.94;;;7.83;59.88
55590;BME280;41452;42.780;23.116;2023-03-19T09:35:09;94856.31;;;7.97;60.74
55590;BME280;41452;42.780;23.116;2023-03-19T09:37:34;94849.09;;;8.06;59.93
55590;BME280;41452;42.780;23.116;2023-03-19T09:40:00;94851.06;;;8.17;54.65
55590;BME280;41452;42.780;23.116;2023-03-19T09:45:03;94846.63;;;8.37;56.01
55590;BME280;41452;42.780;23.116;2023-03-19T09:47:34;94797.75;;;8.11;52.72
55590;BME280;41452;42.780;23.116;2023-03-19T09:50:22;94840.00;;;8.55;53.26
55590;BME280;41452;42.780;23.116;2023-03-19T09:52:59;94838.94;;;8.69;51.38
55590;BME280;41452;42.780;23.116;2023-03-19T09:57:53;94833.72;;;8.69;52.11
55590;BME280;41452;42.780;23.116;2023-03-19T10:00:31;94827.22;;;8.85;53.93
55590;BME280;41452;42.780;23.116;2023-03-19T10:08:25;94821.97;;;8.92;49.64
55590;BME280;41452;42.780;23.116;2023-03-19T10:16:37;94771.91;;;9.07;49.69
55590;BME280;41452;42.780;23.116;2023-03-19T10:19:08;94807.91;;;9.57;50.12
55590;BME280;41452;42.780;23.116;2023-03-19T10:21:42;94758.41;;;9.42;48.43
55590;BME280;41452;42.780;23.116;2023-03-19T10:24:34;94800.19;;;9.62;47.63
55590;BME280;41452;42.780;23.116;2023-03-19T10:27:10;94793.66;;;9.71;45.55
55590;BME280;41452;42.780;23.116;2023-03-19T10:29:37;94793.66;;;9.71;46.53
55590;BME280;41452;42.780;23.116;2023-03-19T10:34:40;94779.94;;;9.76;47.65
55590;BME280;41452;42.780;23.116;2023-03-19T10:39:38;94714.78;;;9.47;47.33
55590;BME280;41452;42.780;23.116;2023-03-19T10:44:51;94765.19;;;10.00;44.14
55590;BME280;41452;42.780;23.116;2023-03-19T10:47:17;94732.63;;;9.82;45.60
55590;BME280;41452;42.780;23.116;2023-03-19T10:49:44;94757.47;;;10.05;46.10
55590;BME280;41452;42.780;23.116;2023-03-19T10:52:23;94751.56;;;10.35;47.98
55590;BME280;41452;42.780;23.116;2023-03-19T10:54:54;94749.72;;;10.54;46.37
55590;BME280;41452;42.780;23.116;2023-03-19T10:57:29;94751.41;;;10.67;45.99
55590;BME280;41452;42.780;23.116;2023-03-19T11:00:01;94742.91;;;10.83;44.57
55590;BME280;41452;42.780;23.116;2023-03-19T11:02:29;94726.63;;;10.93;43.87
55590;BME280;41452;42.780;23.116;2023-03-19T11:07:32;94704.53;;;11.24;47.01
55590;BME280;41452;42.780;23.116;2023-03-19T11:09:58;94709.59;;;11.37;46.43
55590;BME280;41452;42.780;23.116;2023-03-19T11:12:31;94715.44;;;11.39;42.14
55590;BME280;41452;42.780;23.116;2023-03-19T11:14:59;94714.44;;;11.40;44.41
55590;BME280;41452;42.780;23.116;2023-03-19T11:17:44;94661.78;;;11.05;43.80
55590;BME280;41452;42.780;23.116;2023-03-19T11:22:45;94666.63;;;11.32;43.54
55590;BME280;41452;42.780;23.116;2023-03-19T11:25:23;94673.81;;;11.60;43.12
55590;BME280;41452;42.780;23.116;2023-03-19T11:28:21;94691.16;;;11.91;43.49
55590;BME280;41452;42.780;23.116;2023-03-19T11:30:59;94690.09;;;12.04;45.01
55590;BME280;41452;42.780;23.116;2023-03-19T11:39:10;94675.56;;;12.02;42.52
55590;BME280;41452;42.780;23.116;2023-03-19T11:47:29;94648.78;;;12.45;42.53
55590;BME280;41452;42.780;23.116;2023-03-19T11:50:28;94647.41;;;12.54;43.12
55590;BME280;41452;42.780;23.116;2023-03-19T11:53:05;94644.59;;;12.73;42.00
55590;BME280;41452;42.780;23.116;2023-03-19T11:55:42;94634.50;;;12.70;43.21
55590;BME280;41452;42.780;23.116;2023-03-19T12:00:53;94628.91;;;12.66;42.04
55590;BME280;41452;42.780;23.116;2023-03-19T12:06:22;94632.19;;;13.02;42.69
55590;BME280;41452;42.780;23.116;2023-03-19T12:09:28;94634.28;;;13.17;43.32
55590;BME280;41452;42.780;23.116;2023-03-19T12:15:26;94619.41;;;13.28;43.17
55590;BME280;41452;42.780;23.116;2023-03-19T12:21:43;94624.56;;;13.35;41.74
55590;BME280;41452;42.780;23.116;2023-03-19T12:35:00;94570.22;;;13.73;40.14
55590;BME280;41452;42.780;23.116;2023-03-19T12:37:39;94613.28;;;13.95;41.10
55590;BME280;41452;42.780;23.116;2023-03-19T12:42:58;94597.38;;;13.90;41.22
55590;BME280;41452;42.780;23.116;2023-03-19T12:45:44;94597.22;;;13.80;39.72
55590;BME280;41452;42.780;23.116;2023-03-19T12:48:25;94583.84;;;13.64;39.59
55590;BME280;41452;42.780;23.116;2023-03-19T12:50:55;94595.88;;;13.77;41.17
55590;BME280;41452;42.780;23.116;2023-03-19T12:53:52;94593.81;;;14.01;40.02
55590;BME280;41452;42.780;23.116;2023-03-19T12:56:38;94583.81;;;14.03;39.18
55590;BME280;41452;42.780;23.116;2023-03-19T12:59:17;94580.25;;;14.15;40.13
55590;BME280;41452;42.780;23.116;2023-03-19T13:01:49;94556.91;;;14.06;39.10
55590;BME280;41452;42.780;23.116;2023-03-19T13:04:19;94562.13;;;14.01;38.68
55590;BME280;41452;42.780;23.116;2023-03-19T13:06:57;94573.03;;;14.10;40.86
55590;BME280;41452;42.780;23.116;2023-03-19T13:09:38;94577.06;;;14.13;38.15
55590;BME280;41452;42.780;23.116;2023-03-19T13:12:19;94571.09;;;14.00;38.15
55590;BME280;41452;42.780;23.116;2023-03-19T13:15:23;94566.94;;;14.32;39.67
55590;BME280;41452;42.780;23.116;2023-03-19T13:18:08;94570.66;;;14.31;38.42
55590;BME280;41452;42.780;23.116;2023-03-19T13:23:22;94571.16;;;14.05;37.75
55590;BME280;41452;42.780;23.116;2023-03-19T13:25:50;94563.03;;;14.34;38.97
55590;BME280;41452;42.780;23.116;2023-03-19T13:28:27;94554.78;;;14.03;38.00
55590;BME280;41452;42.780;23.116;2023-03-19T13:33:26;94517.88;;;14.14;37.51
55590;BME280;41452;42.780;23.116;2023-03-19T13:35:54;94518.06;;;14.29;38.17
55590;BME280;41452;42.780;23.116;2023-03-19T13:40:53;94532.69;;;14.64;37.23
55590;BME280;41452;42.780;23.116;2023-03-19T13:43:38;94544.94;;;14.75;37.92
55590;BME280;41452;42.780;23.116;2023-03-19T13:48:37;94539.63;;;14.70;37.90
55590;BME280;41452;42.780;23.116;2023-03-19T13:59:40;94518.66;;;14.91;37.59
55590;BME280;41452;42.780;23.116;2023-03-19T14:05:00;94525.09;;;15.05;35.80
55590;BME280;41452;42.780;23.116;2023-03-19T14:07:34;94497.63;;;14.74;35.72
55590;BME280;41452;42.780;23.116;2023-03-19T14:10:20;94491.88;;;14.82;35.35
55590;BME280;41452;42.780;23.116;2023-03-19T14:12:48;94523.25;;;14.73;34.93
55590;BME280;41452;42.780;23.116;2023-03-19T14:15:22;94522.88;;;14.59;35.88
55590;BME280;41452;42.780;23.116;2023-03-19T14:18:00;94515.19;;;14.90;36.31
55590;BME280;41452;42.780;23.116;2023-03-19T14:20:56;94483.31;;;14.70;35.52
55590;BME280;41452;42.780;23.116;2023-03-19T14:23:25;94435.75;;;14.42;36.13
55590;BME280;41452;42.780;23.116;2023-03-19T14:28:23;94518.75;;;14.74;35.73
55590;BME280;41452;42.780;23.116;2023-03-19T14:30:52;94516.16;;;14.79;36.76
55590;BME280;41452;42.780;23.116;2023-03-19T14:33:49;94464.97;;;14.58;35.82
55590;BME280;41452;42.780;23.116;2023-03-19T14:36:17;94507.69;;;14.77;36.33